createdAt,value
2022-12-15T00:00:04.073Z,20.55
2022-12-15T00:05:25.701Z,20.10
2022-12-15T00:10:46.544Z,17.65
2022-12-15T00:16:06.979Z,17.70
2022-12-15T00:21:28.367Z,18.08
2022-12-15T00:26:48.222Z,19.90
2022-12-15T00:32:08.193Z,19.13
2022-12-15T00:37:29.596Z,18.52
2022-12-15T00:42:32.130Z,19.10
2022-12-15T00:47:34.647Z,19.30
2022-12-15T00:52:56.124Z,19.77
2022-12-15T00:58:15.979Z,17.75
2022-12-15T01:03:37.580Z,18.55
2022-12-15T01:08:58.887Z,17.33
2022-12-15T01:14:18.840Z,19.40
2022-12-15T01:19:38.597Z,20.75
2022-12-15T01:24:42.410Z,18.77
2022-12-15T01:29:45.023Z,18.70
2022-12-15T01:34:47.687Z,19.73
2022-12-15T01:40:08.714Z,19.50
2022-12-15T01:45:25.997Z,20.02
2022-12-15T01:50:29.682Z,18.80
2022-12-15T01:55:33.532Z,17.67
2022-12-15T02:00:36.091Z,17.40
2022-12-15T02:05:39.333Z,18.42
2022-12-15T02:10:51.243Z,16.83
2022-12-15T02:15:57.233Z,16.38
2022-12-15T02:21:03.169Z,17.90
2022-12-15T02:26:20.215Z,18.08
2022-12-15T02:31:46.701Z,18.33
2022-12-15T02:36:55.651Z,19.90
2022-12-15T02:41:58.139Z,17.00
2022-12-15T02:47:10.736Z,20.30
2022-12-15T02:52:21.466Z,19.48
2022-12-15T02:57:26.066Z,17.55
2022-12-15T03:02:31.734Z,19.10
2022-12-15T03:07:34.287Z,18.75
2022-12-15T03:12:36.749Z,18.67
2022-12-15T03:17:40.593Z,18.30
2022-12-15T03:22:43.068Z,18.65
2022-12-15T03:27:46.403Z,22.67
2022-12-15T03:37:52.468Z,19.65
2022-12-15T03:42:54.869Z,18.50
2022-12-15T03:47:58.293Z,17.60
2022-12-15T03:58:04.533Z,16.85
2022-12-15T04:03:07.310Z,19.35
2022-12-15T04:08:09.810Z,18.33
2022-12-15T04:13:13.593Z,19.25
2022-12-15T04:18:16.067Z,18.75
2022-12-15T04:23:18.506Z,19.40
2022-12-15T04:28:40.159Z,17.67
2022-12-15T04:34:02.592Z,18.90
2022-12-15T04:39:23.331Z,16.92
2022-12-15T04:44:45.027Z,17.63
2022-12-15T04:50:10.291Z,17.83
2022-12-15T04:55:30.077Z,15.50
2022-12-15T05:00:51.254Z,18.10
2022-12-15T05:06:10.948Z,17.05
2022-12-15T05:11:30.919Z,14.90
2022-12-15T05:16:52.063Z,14.35
2022-12-15T05:22:11.805Z,14.48
2022-12-15T05:27:31.502Z,14.68
2022-12-15T05:32:35.475Z,14.70
2022-12-15T05:37:38.610Z,14.40
2022-12-15T05:42:41.096Z,15.15
2022-12-15T05:47:44.957Z,14.07
2022-12-15T05:52:49.549Z,15.05
2022-12-15T05:57:53.187Z,14.48
2022-12-15T06:02:56.910Z,15.85
2022-12-15T06:08:00.952Z,17.08
2022-12-15T06:13:03.448Z,18.25
2022-12-15T06:18:07.288Z,17.60
2022-12-15T06:23:09.723Z,20.10
2022-12-15T06:28:12.118Z,19.20
2022-12-15T06:33:15.853Z,17.93
2022-12-15T06:38:18.332Z,18.13
2022-12-15T06:43:20.734Z,18.43
2022-12-15T06:48:24.867Z,18.83
2022-12-15T06:53:27.458Z,20.42
2022-12-15T06:58:29.996Z,20.43
2022-12-15T07:03:34.409Z,20.73
2022-12-15T07:08:41.283Z,20.33
2022-12-15T07:13:44.307Z,19.67
2022-12-15T07:18:49.308Z,18.77
2022-12-15T07:23:55.239Z,21.13
2022-12-15T07:28:58.094Z,20.52
2022-12-15T07:34:01.931Z,19.43
2022-12-15T07:39:05.325Z,20.80
2022-12-15T07:49:11.966Z,21.05
2022-12-15T07:54:15.342Z,22.75
2022-12-15T07:59:17.956Z,22.95
2022-12-15T08:04:21.722Z,25.87
2022-12-15T08:09:24.640Z,23.67
2022-12-15T08:14:28.693Z,23.65
2022-12-15T08:19:32.462Z,26.35
2022-12-15T08:24:34.836Z,24.67
2022-12-15T08:29:52.938Z,25.20
2022-12-15T08:34:56.856Z,24.50
2022-12-15T08:39:59.340Z,24.08
2022-12-15T08:45:01.825Z,21.48
2022-12-15T08:50:07.758Z,21.27
2022-12-15T08:55:11.329Z,23.52
2022-12-15T09:05:17.382Z,22.45
2022-12-15T09:10:19.905Z,22.50
2022-12-15T09:15:39.278Z,23.42
2022-12-15T09:20:46.472Z,23.33
2022-12-15T09:25:49.967Z,23.02
2022-12-15T09:30:52.524Z,22.52
2022-12-15T09:35:56.349Z,24.17
2022-12-15T09:40:58.814Z,24.00
2022-12-15T09:46:04.665Z,22.23
2022-12-15T09:51:10.079Z,21.98
2022-12-15T09:56:16.298Z,24.45
2022-12-15T10:01:24.407Z,22.80
2022-12-15T10:06:33.300Z,22.27
2022-12-15T10:11:50.206Z,21.52
2022-12-15T10:16:56.458Z,22.58
2022-12-15T10:22:00.570Z,23.70
2022-12-15T10:27:09.326Z,23.02
2022-12-15T10:32:17.191Z,22.02
2022-12-15T10:37:21.995Z,24.13
2022-12-15T10:42:25.233Z,22.83
2022-12-15T10:47:28.882Z,23.52
2022-12-15T10:57:35.928Z,24.33
2022-12-15T11:02:38.600Z,23.77
2022-12-15T11:07:42.517Z,24.40
2022-12-15T11:13:01.979Z,23.65
2022-12-15T11:18:12.762Z,24.23
2022-12-15T11:23:19.800Z,22.92
2022-12-15T11:28:26.221Z,22.58
2022-12-15T11:33:29.242Z,23.92
2022-12-15T11:38:35.961Z,23.38
2022-12-15T11:43:48.504Z,24.52
2022-12-15T11:49:10.196Z,22.90
2022-12-15T11:54:16.628Z,21.70
2022-12-15T11:59:29.411Z,22.50
2022-12-15T12:04:37.405Z,23.05
2022-12-15T12:09:42.702Z,23.65
2022-12-15T12:14:52.190Z,20.92
2022-12-15T12:19:55.841Z,23.95
2022-12-15T12:25:00.782Z,22.25
2022-12-15T12:30:06.719Z,23.35
2022-12-15T12:35:31.724Z,24.73
2022-12-15T12:40:46.210Z,24.63
2022-12-15T12:45:51.439Z,23.45
2022-12-15T12:50:54.485Z,24.95
2022-12-15T12:55:57.074Z,23.85
2022-12-15T13:01:16.849Z,23.30
2022-12-15T13:06:24.091Z,27.65
2022-12-15T13:12:14.965Z,27.08
2022-12-15T13:17:28.913Z,26.88
2022-12-15T13:22:33.736Z,26.38
2022-12-15T13:27:36.611Z,29.02
2022-12-15T13:32:41.458Z,28.63
2022-12-15T13:37:50.468Z,30.25
2022-12-15T13:42:58.801Z,31.33
2022-12-15T13:48:06.444Z,31.10
2022-12-15T13:53:19.477Z,32.10
2022-12-15T13:58:24.113Z,30.38
2022-12-15T14:03:28.054Z,32.40
2022-12-15T14:08:31.157Z,29.73
2022-12-15T14:13:36.194Z,31.55
2022-12-15T14:18:40.800Z,30.83
2022-12-15T14:24:10.929Z,32.20
2022-12-15T14:29:07.432Z,31.33
2022-12-15T14:34:13.052Z,31.38
2022-12-15T14:39:18.319Z,32.80
2022-12-15T14:44:36.635Z,34.13
2022-12-15T14:49:45.125Z,33.67
2022-12-15T14:54:52.150Z,34.38
2022-12-15T14:59:54.928Z,35.17
2022-12-15T15:10:04.828Z,35.25
2022-12-15T15:15:08.527Z,36.15
2022-12-15T15:25:36.149Z,35.78
2022-12-15T15:30:43.515Z,34.97
2022-12-15T15:35:47.521Z,34.88
2022-12-15T15:40:55.546Z,38.00
2022-12-15T15:45:59.846Z,36.13
2022-12-15T15:51:03.277Z,35.67
2022-12-15T15:56:09.824Z,39.90
2022-12-15T16:01:13.490Z,37.85
2022-12-15T16:06:17.471Z,36.65
2022-12-15T16:16:25.080Z,39.10
2022-12-15T16:21:28.671Z,36.90
2022-12-15T16:31:41.200Z,35.85
2022-12-15T16:36:44.704Z,38.40
2022-12-15T16:41:47.092Z,37.23
2022-12-15T16:46:51.971Z,39.85
2022-12-15T16:51:54.561Z,41.55
2022-12-15T16:56:57.927Z,46.15
2022-12-15T17:02:02.134Z,42.40
2022-12-15T17:07:04.708Z,40.15
2022-12-15T17:12:07.331Z,42.38
2022-12-15T17:17:13.333Z,44.42
2022-12-15T17:22:16.518Z,42.63
2022-12-15T17:27:24.461Z,40.50
2022-12-15T17:32:28.319Z,40.85
2022-12-15T17:37:35.186Z,41.22
2022-12-15T17:42:37.975Z,39.55
2022-12-15T17:47:41.734Z,41.80
2022-12-15T17:52:45.017Z,41.80
2022-12-15T17:57:47.656Z,38.30
2022-12-15T18:02:51.522Z,37.27
2022-12-15T18:07:55.380Z,38.38
2022-12-15T18:12:58.109Z,43.03
2022-12-15T18:18:01.937Z,35.20
2022-12-15T18:23:07.149Z,37.55
2022-12-15T18:28:17.124Z,36.40
2022-12-15T18:33:21.245Z,39.25
2022-12-15T18:38:24.490Z,35.42
2022-12-15T18:43:30.765Z,38.83
2022-12-15T18:48:35.214Z,35.00
2022-12-15T18:53:38.162Z,36.72
2022-12-15T18:58:40.734Z,33.55
2022-12-15T19:03:44.494Z,36.45
2022-12-15T19:08:47.103Z,35.20
2022-12-15T19:13:49.824Z,35.53
2022-12-15T19:19:17.099Z,35.10
2022-12-15T19:24:44.092Z,35.58
2022-12-15T19:29:46.741Z,35.65
2022-12-15T19:34:50.637Z,34.63
2022-12-15T19:39:53.250Z,37.17
2022-12-15T19:44:55.622Z,36.30
2022-12-15T19:49:59.470Z,37.17
2022-12-15T19:55:02.136Z,35.22
2022-12-15T20:00:07.464Z,34.93
2022-12-15T20:05:11.513Z,36.92
2022-12-15T20:10:24.459Z,36.47
2022-12-15T20:15:31.565Z,35.78
2022-12-15T20:20:38.948Z,37.47
2022-12-15T20:25:42.272Z,36.92
2022-12-15T20:30:45.326Z,35.97
2022-12-15T20:35:49.860Z,33.25
2022-12-15T20:40:52.572Z,34.95
2022-12-15T20:45:59.019Z,39.13
2022-12-15T20:51:05.981Z,36.55
2022-12-15T20:56:11.668Z,39.40
2022-12-15T21:01:24.347Z,36.90
2022-12-15T21:06:29.200Z,35.67
2022-12-15T21:11:33.192Z,37.78
2022-12-15T21:16:36.159Z,39.35
2022-12-15T21:21:41.305Z,37.05
2022-12-15T21:26:43.843Z,38.15
2022-12-15T21:31:46.919Z,34.78
2022-12-15T21:36:54.783Z,35.40
2022-12-15T21:41:59.686Z,38.30
2022-12-15T21:47:02.124Z,35.90
2022-12-15T21:52:06.498Z,41.80
2022-12-15T21:57:11.344Z,40.20
2022-12-15T22:02:23.643Z,35.42
2022-12-15T22:07:27.543Z,35.20
2022-12-15T22:12:30.107Z,34.55
2022-12-15T22:17:32.973Z,34.22
2022-12-15T22:22:36.808Z,33.40
2022-12-15T22:27:39.196Z,35.28
2022-12-15T22:32:41.599Z,36.38
2022-12-15T22:37:45.768Z,36.28
2022-12-15T22:42:51.124Z,35.10
2022-12-15T22:47:54.999Z,35.53
2022-12-15T22:58:03.008Z,36.28
2022-12-15T23:03:06.528Z,37.80
2022-12-15T23:08:09.218Z,36.28
2022-12-15T23:13:12.985Z,35.50
2022-12-15T23:18:15.482Z,36.55
2022-12-15T23:23:18.053Z,34.50
2022-12-15T23:28:22.157Z,37.10
2022-12-15T23:33:24.917Z,34.20
2022-12-15T23:38:27.683Z,33.70
2022-12-15T23:43:33.244Z,33.33
2022-12-15T23:48:37.096Z,34.10
2022-12-15T23:58:44.858Z,33.30
